createdAt,value
2022-10-14T00:01:22.780Z,10.78
2022-10-14T00:03:51.421Z,10.76
2022-10-14T00:06:23.458Z,11.09
2022-10-14T00:08:51.932Z,11.21
2022-10-14T00:11:27.701Z,11.21
2022-10-14T00:13:57.549Z,10.73
2022-10-14T00:16:31.246Z,11.06
2022-10-14T00:18:59.811Z,10.75
2022-10-14T00:21:28.959Z,10.42
2022-10-14T00:23:58.087Z,10.67
2022-10-14T00:26:31.618Z,10.88
2022-10-14T00:29:00.444Z,11.19
2022-10-14T00:31:33.055Z,11.16
2022-10-14T00:34:01.497Z,11.14
2022-10-14T00:36:29.854Z,11.20
2022-10-14T00:38:58.215Z,11.31
2022-10-14T00:41:28.814Z,11.21
2022-10-14T00:44:04.866Z,11.25
2022-10-14T00:46:43.712Z,11.39
2022-10-14T00:49:21.387Z,11.44
2022-10-14T00:51:59.142Z,11.37
2022-10-14T00:54:41.214Z,11.34
2022-10-14T00:57:10.121Z,11.39
2022-10-14T00:59:38.478Z,11.41
2022-10-14T01:02:06.964Z,11.48
2022-10-14T01:04:36.569Z,11.07
2022-10-14T01:07:34.844Z,10.60
2022-10-14T01:10:20.812Z,10.88
2022-10-14T01:13:04.959Z,10.82
2022-10-14T01:15:41.980Z,10.99
2022-10-14T01:18:19.571Z,10.76
2022-10-14T01:21:23.970Z,10.49
2022-10-14T01:24:05.796Z,11.02
2022-10-14T01:26:44.372Z,10.96
2022-10-14T01:29:46.008Z,11.12
2022-10-14T01:32:24.333Z,11.00
2022-10-14T01:35:11.151Z,10.58
2022-10-14T01:37:42.029Z,10.82
2022-10-14T01:40:14.295Z,10.86
2022-10-14T01:42:42.725Z,11.05
2022-10-14T01:45:19.733Z,11.09
2022-10-14T01:47:49.785Z,11.17
2022-10-14T01:50:20.042Z,10.54
2022-10-14T01:53:02.527Z,9.59
2022-10-14T01:55:34.769Z,9.95
2022-10-14T01:58:03.482Z,10.56
2022-10-14T02:00:33.008Z,10.76
2022-10-14T02:03:03.478Z,10.80
2022-10-14T02:05:41.651Z,10.76
2022-10-14T02:08:21.190Z,10.71
2022-10-14T02:11:09.219Z,10.59
2022-10-14T02:13:50.451Z,10.21
2022-10-14T02:16:34.246Z,9.86
2022-10-14T02:19:33.181Z,9.47
2022-10-14T02:22:13.179Z,9.69
2022-10-14T02:24:43.784Z,10.03
2022-10-14T02:27:15.441Z,10.42
2022-10-14T02:29:45.620Z,10.54
2022-10-14T02:32:15.421Z,10.42
2022-10-14T02:34:45.666Z,10.15
2022-10-14T02:37:14.111Z,9.76
2022-10-14T02:39:45.080Z,10.16
2022-10-14T02:42:13.883Z,10.39
2022-10-14T02:44:58.008Z,10.35
2022-10-14T02:47:27.188Z,10.45
2022-10-14T02:49:55.937Z,10.64
2022-10-14T02:52:26.084Z,10.44
2022-10-14T02:54:54.951Z,10.42
2022-10-14T02:57:23.907Z,10.05
2022-10-14T02:59:52.256Z,9.63
2022-10-14T03:02:22.313Z,10.08
2022-10-14T03:04:51.469Z,10.39
2022-10-14T03:07:19.797Z,10.18
2022-10-14T03:09:53.269Z,10.39
2022-10-14T03:12:21.972Z,10.28
2022-10-14T03:14:51.622Z,10.41
2022-10-14T03:17:20.766Z,10.12
2022-10-14T03:19:51.431Z,10.48
2022-10-14T03:22:20.436Z,10.13
2022-10-14T03:24:49.131Z,10.43
2022-10-14T03:27:36.661Z,9.99
2022-10-14T03:30:10.500Z,10.06
2022-10-14T03:32:46.888Z,10.22
2022-10-14T03:35:30.830Z,10.35
2022-10-14T03:38:03.850Z,10.31
2022-10-14T03:40:35.680Z,10.36
2022-10-14T03:43:09.182Z,10.48
2022-10-14T03:45:46.800Z,10.47
2022-10-14T03:48:17.823Z,10.48
2022-10-14T03:50:47.812Z,9.97
2022-10-14T03:53:16.150Z,10.25
2022-10-14T03:55:45.970Z,10.15
2022-10-14T03:58:14.849Z,10.11
2022-10-14T04:00:50.014Z,10.02
2022-10-14T04:03:43.064Z,9.80
2022-10-14T04:06:11.474Z,9.91
2022-10-14T04:08:39.857Z,10.05
2022-10-14T04:11:20.936Z,9.90
2022-10-14T04:13:51.986Z,9.19
2022-10-14T04:16:21.174Z,9.16
2022-10-14T04:19:04.829Z,9.23
2022-10-14T04:21:33.240Z,8.89
2022-10-14T04:24:07.386Z,8.68
2022-10-14T04:26:43.269Z,9.29
2022-10-14T04:29:24.770Z,9.43
2022-10-14T04:32:03.442Z,9.51
2022-10-14T04:34:32.232Z,9.37
2022-10-14T04:37:01.681Z,9.54
2022-10-14T04:39:46.034Z,9.48
2022-10-14T04:42:14.480Z,9.24
2022-10-14T04:44:46.773Z,9.30
2022-10-14T04:47:16.614Z,9.35
2022-10-14T04:49:48.246Z,9.35
2022-10-14T04:52:21.501Z,9.48
2022-10-14T04:54:56.571Z,9.62
2022-10-14T04:57:35.917Z,9.58
2022-10-14T05:00:05.483Z,9.86
2022-10-14T05:02:56.685Z,9.76
2022-10-14T05:05:32.362Z,9.84
2022-10-14T05:08:03.960Z,9.88
2022-10-14T05:10:39.551Z,9.85
2022-10-14T05:13:12.327Z,9.88
2022-10-14T05:15:54.069Z,9.92
2022-10-14T05:18:23.341Z,10.07
2022-10-14T05:21:01.587Z,10.42
2022-10-14T05:23:50.066Z,10.47
2022-10-14T05:26:19.039Z,10.34
2022-10-14T05:28:49.188Z,10.43
2022-10-14T05:31:17.809Z,10.47
2022-10-14T05:33:53.566Z,10.61
2022-10-14T05:36:22.533Z,10.54
2022-10-14T05:38:51.019Z,10.52
2022-10-14T05:41:23.263Z,10.72
2022-10-14T05:43:52.059Z,10.34
2022-10-14T05:46:21.406Z,10.39
2022-10-14T05:48:57.231Z,10.56
2022-10-14T05:51:26.651Z,11.07
2022-10-14T05:54:02.594Z,11.30
2022-10-14T05:56:31.832Z,11.51
2022-10-14T05:59:00.521Z,11.56
2022-10-14T06:01:29.550Z,11.60
2022-10-14T06:03:58.731Z,11.63
2022-10-14T06:06:29.084Z,11.72
2022-10-14T06:08:59.062Z,11.96
2022-10-14T06:11:27.507Z,12.17
2022-10-14T06:13:56.593Z,12.48
2022-10-14T06:16:25.146Z,12.77
2022-10-14T06:18:54.588Z,13.00
2022-10-14T06:21:24.102Z,13.08
2022-10-14T06:23:52.586Z,13.14
2022-10-14T06:26:22.074Z,13.32
2022-10-14T06:28:50.577Z,13.52
2022-10-14T06:31:19.123Z,13.58
2022-10-14T06:33:47.570Z,13.68
2022-10-14T06:36:16.189Z,13.88
2022-10-14T06:38:44.616Z,14.04
2022-10-14T06:41:13.056Z,14.03
2022-10-14T06:43:42.738Z,14.10
2022-10-14T06:46:11.251Z,14.24
2022-10-14T06:48:39.766Z,14.28
2022-10-14T06:51:08.263Z,14.45
2022-10-14T06:53:36.701Z,14.22
2022-10-14T06:56:06.487Z,14.49
2022-10-14T06:58:35.048Z,14.65
2022-10-14T07:01:08.139Z,14.69
2022-10-14T07:03:37.235Z,14.56
2022-10-14T07:06:07.213Z,15.11
2022-10-14T07:08:35.693Z,15.09
2022-10-14T07:11:04.896Z,15.35
2022-10-14T07:13:34.767Z,15.12
2022-10-14T07:16:03.706Z,15.34
2022-10-14T07:18:32.369Z,15.69
2022-10-14T07:21:04.998Z,15.46
2022-10-14T07:23:33.529Z,15.65
2022-10-14T07:26:02.740Z,15.60
2022-10-14T07:28:31.428Z,15.44
2022-10-14T07:31:07.722Z,14.64
2022-10-14T07:36:10.557Z,15.80
2022-10-14T07:38:39.052Z,15.87
2022-10-14T07:41:16.787Z,14.74
2022-10-14T07:43:46.599Z,15.77
2022-10-14T07:46:15.660Z,16.08
2022-10-14T07:48:56.535Z,16.21
2022-10-14T07:51:27.797Z,16.33
2022-10-14T07:53:57.796Z,16.09
2022-10-14T07:56:26.438Z,16.32
2022-10-14T07:58:55.675Z,16.93
2022-10-14T08:01:25.018Z,17.22
2022-10-14T08:03:53.913Z,17.61
2022-10-14T08:06:22.842Z,17.55
2022-10-14T08:08:51.592Z,17.29
2022-10-14T08:11:28.217Z,16.35
2022-10-14T08:13:58.226Z,17.32
2022-10-14T08:16:29.094Z,17.44
2022-10-14T08:18:59.678Z,17.45
2022-10-14T08:21:28.779Z,17.46
2022-10-14T08:23:57.809Z,15.97
2022-10-14T08:26:35.713Z,17.20
2022-10-14T08:29:10.855Z,17.07
2022-10-14T08:31:39.705Z,16.63
2022-10-14T08:34:11.228Z,16.42
2022-10-14T08:36:40.580Z,15.72
2022-10-14T08:42:00.400Z,16.64
2022-10-14T08:44:38.183Z,16.10
2022-10-14T08:47:16.086Z,16.50
2022-10-14T08:50:06.277Z,16.70
2022-10-14T08:52:58.294Z,16.76
2022-10-14T08:55:47.222Z,16.95
2022-10-14T08:58:32.445Z,17.03
2022-10-14T09:01:24.601Z,17.07
2022-10-14T09:03:55.304Z,17.23
2022-10-14T09:06:29.595Z,16.97
2022-10-14T09:09:01.267Z,17.30
2022-10-14T09:11:33.652Z,17.27
2022-10-14T09:14:04.186Z,17.78
2022-10-14T09:16:36.705Z,17.37
2022-10-14T09:19:09.567Z,17.56
2022-10-14T09:21:52.165Z,17.67
2022-10-14T09:24:22.861Z,17.80
2022-10-14T09:27:01.407Z,18.38
2022-10-14T09:29:33.480Z,17.61
2022-10-14T09:32:05.302Z,17.87
2022-10-14T09:34:48.094Z,16.69
2022-10-14T09:37:28.413Z,17.90
2022-10-14T09:40:07.959Z,18.08
2022-10-14T09:42:52.235Z,17.97
2022-10-14T09:45:25.254Z,17.00
2022-10-14T09:47:58.416Z,16.80
2022-10-14T09:50:38.805Z,17.34
2022-10-14T09:53:18.216Z,18.17
2022-10-14T09:55:55.119Z,17.72
2022-10-14T09:58:37.200Z,18.05
2022-10-14T10:01:13.977Z,17.51
2022-10-14T10:03:47.025Z,18.09
2022-10-14T10:06:20.616Z,18.77
2022-10-14T10:08:56.794Z,18.33
2022-10-14T10:11:39.914Z,18.33
2022-10-14T10:14:31.768Z,17.50
2022-10-14T10:17:10.660Z,17.56
2022-10-14T10:19:46.186Z,17.67
2022-10-14T10:22:32.348Z,17.50
2022-10-14T10:25:04.356Z,18.08
2022-10-14T10:27:37.944Z,18.41
2022-10-14T10:30:21.222Z,17.73
2022-10-14T10:33:27.959Z,18.89
2022-10-14T10:36:42.094Z,18.82
2022-10-14T10:39:29.049Z,18.92
2022-10-14T10:42:04.782Z,18.62
2022-10-14T10:44:51.888Z,18.92
2022-10-14T10:47:33.004Z,18.52
2022-10-14T10:50:13.092Z,18.48
2022-10-14T10:53:18.074Z,18.58
2022-10-14T10:56:15.381Z,18.55
2022-10-14T10:58:55.358Z,18.58
2022-10-14T11:01:37.153Z,18.51
2022-10-14T11:04:27.081Z,18.16
2022-10-14T11:07:37.647Z,18.58
2022-10-14T11:10:39.798Z,18.59
2022-10-14T11:13:30.769Z,18.32
2022-10-14T11:16:21.763Z,18.28
2022-10-14T11:18:55.966Z,17.96
2022-10-14T11:21:55.780Z,17.98
2022-10-14T11:24:55.059Z,17.78
2022-10-14T11:27:44.974Z,17.79
2022-10-14T11:30:25.740Z,17.37
2022-10-14T11:33:16.173Z,18.09
2022-10-14T11:35:56.830Z,18.28
2022-10-14T11:38:36.035Z,17.80
2022-10-14T11:41:33.986Z,17.45
2022-10-14T11:44:15.396Z,17.85
2022-10-14T11:46:46.229Z,17.78
2022-10-14T11:49:32.279Z,17.82
2022-10-14T11:52:08.061Z,17.55
2022-10-14T11:54:40.892Z,17.59
2022-10-14T11:57:55.410Z,17.49
2022-10-14T12:00:43.843Z,17.48
2022-10-14T12:03:32.508Z,17.21
2022-10-14T12:06:05.745Z,16.57
2022-10-14T12:08:40.713Z,17.08
2022-10-14T12:11:38.178Z,17.21
2022-10-14T12:14:21.815Z,17.09
2022-10-14T12:16:50.637Z,17.13
2022-10-14T12:19:28.696Z,17.29
2022-10-14T12:22:05.797Z,17.19
2022-10-14T12:24:37.646Z,17.50
2022-10-14T12:27:07.142Z,17.41
2022-10-14T12:29:42.181Z,17.28
2022-10-14T12:32:30.433Z,17.14
2022-10-14T12:35:01.938Z,17.46
2022-10-14T12:37:35.680Z,16.81
2022-10-14T12:40:06.071Z,17.19
2022-10-14T12:43:01.857Z,17.03
2022-10-14T12:45:35.226Z,16.77
2022-10-14T12:48:06.039Z,16.61
2022-10-14T12:50:38.317Z,17.08
2022-10-14T12:53:27.940Z,16.86
2022-10-14T12:56:00.553Z,16.98
2022-10-14T12:58:56.233Z,16.55
2022-10-14T13:01:24.619Z,16.93
2022-10-14T13:06:44.474Z,17.66
2022-10-14T13:09:12.807Z,17.62
2022-10-14T13:11:42.474Z,16.95
2022-10-14T13:14:28.123Z,16.67
2022-10-14T13:16:57.626Z,16.37
2022-10-14T13:19:35.194Z,17.00
2022-10-14T13:22:33.201Z,16.97
2022-10-14T13:25:15.993Z,17.12
2022-10-14T13:28:01.907Z,16.71
2022-10-14T13:30:51.290Z,16.90
2022-10-14T13:33:42.294Z,17.04
2022-10-14T13:36:42.842Z,17.09
2022-10-14T13:39:12.129Z,17.19
2022-10-14T13:41:41.350Z,17.08
2022-10-14T13:44:10.465Z,17.07
2022-10-14T13:46:43.508Z,16.77
2022-10-14T13:49:23.853Z,16.96
2022-10-14T13:51:53.214Z,17.03
2022-10-14T13:54:24.098Z,17.12
2022-10-14T13:57:38.268Z,16.96
2022-10-14T14:00:39.559Z,16.98
2022-10-14T14:02:48.106Z,16.99
2022-10-14T14:05:22.594Z,16.87
2022-10-14T14:11:03.763Z,16.96
2022-10-14T14:13:30.419Z,16.79
2022-10-14T14:15:59.658Z,16.88
2022-10-14T14:18:49.462Z,16.86
2022-10-14T14:21:27.331Z,16.94
2022-10-14T14:23:58.515Z,16.46
2022-10-14T14:26:39.732Z,16.67
2022-10-14T14:29:18.307Z,16.71
2022-10-14T14:32:05.556Z,16.73
2022-10-14T14:34:35.645Z,16.74
2022-10-14T14:39:57.206Z,16.71
2022-10-14T14:42:33.645Z,16.88
2022-10-14T14:45:05.274Z,16.61
2022-10-14T14:47:33.855Z,16.35
2022-10-14T14:52:53.010Z,15.68
2022-10-14T14:55:41.150Z,15.90
2022-10-14T14:58:44.926Z,16.27
2022-10-14T15:01:26.947Z,16.17
2022-10-14T15:04:12.621Z,16.22
2022-10-14T15:06:51.706Z,16.32
2022-10-14T15:09:34.945Z,16.12
2022-10-14T15:12:18.102Z,15.56
2022-10-14T15:14:49.904Z,15.13
2022-10-14T15:17:40.336Z,15.36
2022-10-14T15:20:11.980Z,15.33
2022-10-14T15:22:41.603Z,15.44
2022-10-14T15:25:23.837Z,15.20
2022-10-14T15:27:55.191Z,14.83
2022-10-14T15:30:39.519Z,14.74
2022-10-14T15:33:16.973Z,14.90
2022-10-14T15:35:54.491Z,14.76
2022-10-14T15:38:23.157Z,14.67
2022-10-14T15:40:52.338Z,14.39
2022-10-14T15:43:27.703Z,14.55
2022-10-14T15:46:19.113Z,14.64
2022-10-14T15:48:55.306Z,14.34
2022-10-14T15:51:23.854Z,14.23
2022-10-14T15:53:52.863Z,14.20
2022-10-14T15:56:21.604Z,14.11
2022-10-14T15:58:50.190Z,13.88
2022-10-14T16:01:21.467Z,13.77
2022-10-14T16:03:56.344Z,12.96
2022-10-14T16:06:24.919Z,12.78
2022-10-14T16:08:57.939Z,12.63
2022-10-14T16:11:27.702Z,12.83
2022-10-14T16:13:56.609Z,12.85
2022-10-14T16:16:33.502Z,12.78
2022-10-14T16:19:05.202Z,12.85
2022-10-14T16:21:33.977Z,12.59
2022-10-14T16:24:03.377Z,12.68
2022-10-14T16:26:33.280Z,12.95
2022-10-14T16:29:03.930Z,13.00
2022-10-14T16:31:34.377Z,13.06
2022-10-14T16:34:03.143Z,13.22
2022-10-14T16:36:36.928Z,13.11
2022-10-14T16:39:11.334Z,12.65
2022-10-14T16:41:40.210Z,12.95
2022-10-14T16:44:09.240Z,12.94
2022-10-14T16:46:56.540Z,12.45
2022-10-14T16:49:26.358Z,12.12
2022-10-14T16:52:05.521Z,12.70
2022-10-14T16:54:43.243Z,12.38
2022-10-14T16:57:35.026Z,12.46
2022-10-14T17:00:04.223Z,12.46
2022-10-14T17:02:38.021Z,12.38
2022-10-14T17:05:17.203Z,12.12
2022-10-14T17:08:07.002Z,12.59
2022-10-14T17:10:40.814Z,12.51
2022-10-14T17:13:09.584Z,12.00
2022-10-14T17:15:39.909Z,12.37
2022-10-14T17:18:12.246Z,12.18
2022-10-14T17:20:44.273Z,12.03
2022-10-14T17:23:13.820Z,11.82
2022-10-14T17:25:57.604Z,11.26
2022-10-14T17:28:30.161Z,11.68
2022-10-14T17:31:06.062Z,12.20
2022-10-14T17:33:52.149Z,12.02
2022-10-14T17:36:28.772Z,12.28
2022-10-14T17:39:06.837Z,12.11
2022-10-14T17:41:35.590Z,12.22
2022-10-14T17:44:13.359Z,12.37
2022-10-14T17:46:59.713Z,11.72
2022-10-14T17:49:32.702Z,12.01
2022-10-14T17:52:06.655Z,12.32
2022-10-14T17:54:37.967Z,12.16
2022-10-14T17:57:11.756Z,12.29
2022-10-14T17:59:47.962Z,12.15
2022-10-14T18:02:20.337Z,11.66
2022-10-14T18:04:48.959Z,11.78
2022-10-14T18:07:25.793Z,11.87
2022-10-14T18:09:56.846Z,11.71
2022-10-14T18:12:25.562Z,11.55
2022-10-14T18:14:58.652Z,11.00
2022-10-14T18:17:30.765Z,11.42
2022-10-14T18:20:04.518Z,11.13
2022-10-14T18:22:34.597Z,11.17
2022-10-14T18:25:07.970Z,11.53
2022-10-14T18:27:38.630Z,10.65
2022-10-14T18:30:12.237Z,11.05
2022-10-14T18:32:57.584Z,10.94
2022-10-14T18:35:29.116Z,10.97
2022-10-14T18:37:58.034Z,11.32
2022-10-14T18:40:26.511Z,10.85
2022-10-14T18:43:01.002Z,10.77
2022-10-14T18:45:29.538Z,11.38
2022-10-14T18:48:00.497Z,11.54
2022-10-14T18:50:30.251Z,11.41
2022-10-14T18:53:21.085Z,10.20
2022-10-14T18:55:58.014Z,10.66
2022-10-14T18:58:32.212Z,10.81
2022-10-14T19:01:08.350Z,11.26
2022-10-14T19:03:40.484Z,11.44
2022-10-14T19:06:13.301Z,11.47
2022-10-14T19:08:42.542Z,11.48
2022-10-14T19:11:18.410Z,10.97
2022-10-14T19:14:17.786Z,11.51
2022-10-14T19:16:55.200Z,11.11
2022-10-14T19:19:29.275Z,11.07
2022-10-14T19:22:19.293Z,10.63
2022-10-14T19:24:55.959Z,10.73
2022-10-14T19:30:27.047Z,11.05
2022-10-14T19:32:57.753Z,11.29
2022-10-14T19:35:28.379Z,11.40
2022-10-14T19:37:58.847Z,11.23
2022-10-14T19:40:28.106Z,11.22
2022-10-14T19:43:05.027Z,11.21
2022-10-14T19:45:41.193Z,11.66
2022-10-14T19:48:13.377Z,11.77
2022-10-14T19:50:46.514Z,11.61
2022-10-14T19:53:15.644Z,11.50
2022-10-14T19:55:49.296Z,11.56
2022-10-14T19:58:18.305Z,11.46
2022-10-14T20:00:47.254Z,11.48
2022-10-14T20:03:18.393Z,11.73
2022-10-14T20:05:49.078Z,11.63
2022-10-14T20:08:18.200Z,11.55
2022-10-14T20:10:46.813Z,11.73
2022-10-14T20:13:15.606Z,11.81
2022-10-14T20:15:45.887Z,11.65
2022-10-14T20:18:18.994Z,11.51
2022-10-14T20:20:48.080Z,11.44
2022-10-14T20:23:19.361Z,11.72
2022-10-14T20:25:47.832Z,11.31
2022-10-14T20:28:19.933Z,11.55
2022-10-14T20:30:49.915Z,11.50
2022-10-14T20:33:18.930Z,11.40
2022-10-14T20:35:47.934Z,11.60
2022-10-14T20:38:16.835Z,11.69
2022-10-14T20:40:45.326Z,11.65
2022-10-14T20:43:13.753Z,11.73
2022-10-14T20:45:45.119Z,11.67
2022-10-14T20:48:14.075Z,11.66
2022-10-14T20:50:42.839Z,11.78
2022-10-14T20:53:11.293Z,11.89
2022-10-14T20:55:40.996Z,11.80
2022-10-14T20:58:09.464Z,11.66
2022-10-14T21:00:38.148Z,11.59
2022-10-14T21:03:06.544Z,11.41
2022-10-14T21:05:37.569Z,11.13
2022-10-14T21:08:06.074Z,11.47
2022-10-14T21:10:34.474Z,11.42
2022-10-14T21:13:03.514Z,11.62
2022-10-14T21:15:31.977Z,11.62
2022-10-14T21:18:01.325Z,11.60
2022-10-14T21:20:29.787Z,11.55
2022-10-14T21:22:58.298Z,11.55
2022-10-14T21:25:27.196Z,11.69
2022-10-14T21:27:55.573Z,11.63
2022-10-14T21:30:25.163Z,11.21
2022-10-14T21:32:54.262Z,11.20
2022-10-14T21:35:22.623Z,11.41
2022-10-14T21:37:53.022Z,11.52
2022-10-14T21:40:21.612Z,11.62
2022-10-14T21:42:50.032Z,11.61
2022-10-14T21:45:18.651Z,11.63
2022-10-14T21:47:47.026Z,11.47
2022-10-14T21:50:15.841Z,11.49
2022-10-14T21:52:44.266Z,11.61
2022-10-14T21:55:12.845Z,11.45
2022-10-14T21:57:41.366Z,11.33
2022-10-14T22:00:11.363Z,11.36
2022-10-14T22:02:39.743Z,11.49
2022-10-14T22:05:08.941Z,11.61
2022-10-14T22:07:37.279Z,11.61
2022-10-14T22:10:26.593Z,11.24
2022-10-14T22:12:57.031Z,11.53
2022-10-14T22:15:27.281Z,11.60
2022-10-14T22:17:57.062Z,11.29
2022-10-14T22:20:26.802Z,11.39
2022-10-14T22:22:55.139Z,11.42
2022-10-14T22:25:23.490Z,11.45
2022-10-14T22:27:51.863Z,11.71
2022-10-14T22:30:20.923Z,11.60
2022-10-14T22:32:49.683Z,11.59
2022-10-14T22:35:18.043Z,11.59
2022-10-14T22:37:46.900Z,11.45
2022-10-14T22:40:15.427Z,11.19
2022-10-14T22:42:46.582Z,11.58
2022-10-14T22:45:16.434Z,11.67
2022-10-14T22:47:44.870Z,11.67
2022-10-14T22:50:13.158Z,11.52
2022-10-14T22:52:41.464Z,11.56
2022-10-14T22:55:10.331Z,11.60
2022-10-14T22:57:38.620Z,11.60
2022-10-14T23:00:07.713Z,11.41
2022-10-14T23:02:36.092Z,10.89
2022-10-14T23:05:05.562Z,10.70
2022-10-14T23:07:34.042Z,10.98
2022-10-14T23:10:02.459Z,11.35
2022-10-14T23:12:30.833Z,11.25
2022-10-14T23:14:59.222Z,11.36
2022-10-14T23:17:27.501Z,11.50
2022-10-14T23:19:55.808Z,11.66
2022-10-14T23:22:24.507Z,11.52
2022-10-14T23:24:53.233Z,11.62
2022-10-14T23:27:21.557Z,11.25
2022-10-14T23:29:49.977Z,11.27
2022-10-14T23:34:47.545Z,11.54
2022-10-14T23:37:15.894Z,11.69
2022-10-14T23:39:45.465Z,11.46
2022-10-14T23:42:13.792Z,11.04
2022-10-14T23:44:42.256Z,10.95
2022-10-14T23:47:10.854Z,11.39
2022-10-14T23:49:39.879Z,11.41
2022-10-14T23:52:08.119Z,11.44
2022-10-14T23:54:36.627Z,11.40
2022-10-14T23:57:06.705Z,11.25
2022-10-14T23:59:35.056Z,10.93
